Time,TemperatureF,DewpointF,PressureIn,WindDirection,WindDirectionDegrees,WindSpeedMPH,WindSpeedGustMPH,Humidity,HourlyPrecipIn,Conditions,Clouds,dailyrainin,SolarRadiationWatts/m^2,SoftwareType,DateUTC
2013-05-01 00:02:00,47.0,45.0,-100.00,SSW,204,1.0,4.0,94,0.00,,,0.00,1.000000,,2013-05-01 05:02:00,
2013-05-01 00:11:00,47.0,45.0,-100.00,SSW,204,1.0,4.0,94,0.00,,,0.00,1.000000,,2013-05-01 05:11:00,
2013-05-01 00:21:00,47.0,45.0,-100.00,SSW,204,1.0,4.0,94,0.00,,,0.00,1.000000,,2013-05-01 05:21:00,
2013-05-01 00:32:00,47.0,45.0,-100.00,SSW,204,1.0,4.0,94,0.00,,,0.00,1.000000,,2013-05-01 05:32:00,
2013-05-01 01:02:00,46.0,44.0,-100.00,WSW,237,0.0,2.0,94,0.01,,,0.01,1.000000,,2013-05-01 06:02:00,
2013-05-01 01:12:00,46.0,44.0,-100.00,WSW,237,0.0,2.0,94,0.01,,,0.01,1.000000,,2013-05-01 06:12:00,
2013-05-01 01:22:00,46.0,44.0,-100.00,WSW,237,0.0,2.0,94,0.01,,,0.01,1.000000,,2013-05-01 06:22:00,
2013-05-01 01:32:00,46.0,44.0,-100.00,WSW,237,0.0,2.0,94,0.01,,,0.01,1.000000,,2013-05-01 06:32:00,
2013-05-01 02:01:00,48.0,44.0,-100.00,SW,218,2.0,5.0,87,0.00,,,0.01,1.000000,,2013-05-01 07:01:00,
2013-05-01 02:11:00,48.0,44.0,-100.00,SW,218,2.0,5.0,87,0.00,,,0.01,1.000000,,2013-05-01 07:11:00,
2013-05-01 02:21:00,48.0,44.0,-100.00,SW,218,2.0,5.0,87,0.00,,,0.01,1.000000,,2013-05-01 07:21:00,
2013-05-01 02:32:00,48.0,44.0,-100.00,SW,218,2.0,5.0,87,0.00,,,0.01,1.000000,,2013-05-01 07:32:00,
2013-05-01 03:02:00,48.0,44.0,-100.00,SSW,193,1.0,11.0,86,0.00,,,0.01,1.000000,,2013-05-01 08:02:00,
2013-05-01 03:11:00,48.0,44.0,-100.00,SSW,193,1.0,11.0,86,0.00,,,0.01,1.000000,,2013-05-01 08:11:00,
2013-05-01 03:22:00,48.0,44.0,-100.00,SSW,193,1.0,11.0,86,0.00,,,0.01,1.000000,,2013-05-01 08:22:00,
2013-05-01 03:32:00,48.0,44.0,-100.00,SSW,193,1.0,11.0,86,0.00,,,0.01,1.000000,,2013-05-01 08:32:00,
2013-05-01 04:01:00,45.0,43.0,-100.00,SSW,195,0.0,2.0,92,0.00,,,0.01,1.000000,,2013-05-01 09:01:00,
2013-05-01 04:12:00,45.0,43.0,-100.00,SSW,195,0.0,2.0,92,0.00,,,0.01,1.000000,,2013-05-01 09:12:00,
2013-05-01 04:21:00,45.0,43.0,-100.00,SSW,195,0.0,2.0,92,0.00,,,0.01,1.000000,,2013-05-01 09:21:00,
2013-05-01 04:33:00,45.0,43.0,-100.00,SSW,195,0.0,2.0,92,0.00,,,0.01,1.000000,,2013-05-01 09:33:00,
2013-05-01 05:03:00,45.0,44.0,-100.00,East,93,3.0,5.0,96,0.01,,,0.02,1.000000,,2013-05-01 10:03:00,
2013-05-01 05:12:00,45.0,44.0,-100.00,East,93,3.0,5.0,96,0.01,,,0.02,1.000000,,2013-05-01 10:12:00,
2013-05-01 05:22:00,45.0,44.0,-100.00,East,93,3.0,5.0,96,0.01,,,0.02,1.000000,,2013-05-01 10:22:00,
2013-05-01 05:33:00,45.0,44.0,-100.00,East,93,3.0,5.0,96,0.01,,,0.02,1.000000,,2013-05-01 10:33:00,
2013-05-01 06:02:00,45.0,44.0,-100.00,North,10,1.0,3.0,98,0.04,,,0.06,1.000000,,2013-05-01 11:02:00,
2013-05-01 06:11:00,45.0,44.0,-100.00,North,10,1.0,3.0,98,0.04,,,0.06,1.000000,,2013-05-01 11:11:00,
2013-05-01 06:22:00,45.0,44.0,-100.00,North,10,1.0,3.0,98,0.04,,,0.06,1.000000,,2013-05-01 11:22:00,
2013-05-01 06:32:00,45.0,44.0,-100.00,North,10,1.0,3.0,98,0.04,,,0.06,1.000000,,2013-05-01 11:32:00,
2013-05-01 07:01:00,43.0,42.0,-100.00,SE,124,1.0,3.0,97,0.01,,,0.07,3.000000,,2013-05-01 12:01:00,
2013-05-01 07:11:00,43.0,42.0,-100.00,SE,124,1.0,3.0,97,0.01,,,0.07,3.000000,,2013-05-01 12:11:00,
2013-05-01 07:21:00,43.0,42.0,-100.00,SE,124,1.0,3.0,97,0.01,,,0.07,3.000000,,2013-05-01 12:21:00,
2013-05-01 07:31:00,43.0,42.0,-100.00,SE,124,1.0,3.0,97,0.01,,,0.07,3.000000,,2013-05-01 12:31:00,
2013-05-01 08:01:00,43.0,43.0,-100.00,West,279,1.0,3.0,99,0.00,,,-99.99,10.000000,,2013-05-01 13:01:00,
2013-05-01 08:11:00,43.0,43.0,-100.00,West,279,1.0,3.0,99,0.00,,,-99.99,10.000000,,2013-05-01 13:11:00,
2013-05-01 08:21:00,43.0,43.0,-100.00,West,279,1.0,3.0,99,0.00,,,-99.99,10.000000,,2013-05-01 13:21:00,
2013-05-01 08:32:00,43.0,43.0,-100.00,West,279,1.0,3.0,99,0.00,,,-99.99,10.000000,,2013-05-01 13:32:00,
2013-05-01 09:02:00,44.0,43.0,-100.00,North,10,0.0,3.0,96,0.00,,,0.07,32.000000,,2013-05-01 14:02:00,
2013-05-01 09:11:00,44.0,43.0,-100.00,North,10,0.0,3.0,96,0.00,,,0.07,32.000000,,2013-05-01 14:11:00,
2013-05-01 09:21:00,44.0,43.0,-100.00,North,10,0.0,3.0,96,0.00,,,0.07,32.000000,,2013-05-01 14:21:00,
2013-05-01 09:32:00,44.0,43.0,-100.00,North,10,0.0,3.0,96,0.00,,,0.07,32.000000,,2013-05-01 14:32:00,
2013-05-01 10:01:00,43.0,37.0,-100.00,NNW,343,7.0,13.0,80,0.00,,,0.07,50.000000,,2013-05-01 15:01:00,
2013-05-01 10:11:00,43.0,37.0,-100.00,NNW,343,7.0,13.0,80,0.00,,,0.07,50.000000,,2013-05-01 15:11:00,
2013-05-01 10:21:00,43.0,37.0,-100.00,NNW,343,7.0,13.0,80,0.00,,,0.07,50.000000,,2013-05-01 15:21:00,
2013-05-01 10:33:00,43.0,37.0,-100.00,NNW,343,7.0,13.0,80,0.00,,,0.07,50.000000,,2013-05-01 15:33:00,
2013-05-01 11:03:00,43.0,38.0,-100.00,NNW,347,6.0,11.0,83,0.00,,,0.07,115.000000,,2013-05-01 16:03:00,
2013-05-01 11:12:00,43.0,38.0,-100.00,NNW,347,6.0,11.0,83,0.00,,,0.07,115.000000,,2013-05-01 16:12:00,
2013-05-01 11:22:00,43.0,38.0,-100.00,NNW,347,6.0,11.0,83,0.00,,,0.07,115.000000,,2013-05-01 16:22:00,
2013-05-01 11:32:00,43.0,38.0,-100.00,NNW,347,6.0,11.0,83,0.00,,,0.07,115.000000,,2013-05-01 16:32:00,
2013-05-01 12:02:00,43.0,39.0,-100.00,North,2,6.0,12.0,85,0.00,,,0.07,158.000000,,2013-05-01 17:02:00,
2013-05-01 12:12:00,43.0,39.0,-100.00,North,2,6.0,12.0,85,0.00,,,0.07,158.000000,,2013-05-01 17:12:00,
2013-05-01 12:22:00,43.0,39.0,-100.00,North,2,6.0,12.0,85,0.00,,,0.07,158.000000,,2013-05-01 17:22:00,
2013-05-01 12:32:00,43.0,39.0,-100.00,North,2,6.0,12.0,85,0.00,,,0.07,158.000000,,2013-05-01 17:32:00,
2013-05-01 13:01:00,44.0,37.0,-100.00,North,5,5.0,11.0,76,0.00,,,0.07,307.000000,,2013-05-01 18:01:00,
2013-05-01 13:11:00,44.0,37.0,-100.00,North,5,5.0,11.0,76,0.00,,,0.07,307.000000,,2013-05-01 18:11:00,
2013-05-01 13:22:00,44.0,37.0,-100.00,North,5,5.0,11.0,76,0.00,,,0.07,307.000000,,2013-05-01 18:22:00,
2013-05-01 13:32:00,44.0,37.0,-100.00,North,5,5.0,11.0,76,0.00,,,0.07,307.000000,,2013-05-01 18:32:00,
2013-05-01 14:02:00,44.0,36.0,-100.00,NNW,347,6.0,11.0,72,0.00,,,0.07,325.000000,,2013-05-01 19:02:00,
2013-05-01 14:11:00,44.0,36.0,-100.00,NNW,347,6.0,11.0,72,0.00,,,0.07,325.000000,,2013-05-01 19:11:00,
2013-05-01 14:22:00,44.0,36.0,-100.00,NNW,347,6.0,11.0,72,0.00,,,0.07,325.000000,,2013-05-01 19:22:00,
2013-05-01 14:32:00,44.0,36.0,-100.00,NNW,347,6.0,11.0,72,0.00,,,0.07,325.000000,,2013-05-01 19:32:00,
2013-05-01 15:02:00,43.0,35.0,-100.00,NNW,335,6.0,12.0,74,0.00,,,0.07,219.000000,,2013-05-01 20:02:00,
2013-05-01 15:11:00,43.0,35.0,-100.00,NNW,335,6.0,12.0,74,0.00,,,0.07,219.000000,,2013-05-01 20:11:00,
2013-05-01 15:21:00,43.0,35.0,-100.00,NNW,335,6.0,12.0,74,0.00,,,0.07,219.000000,,2013-05-01 20:21:00,
2013-05-01 15:32:00,43.0,35.0,-100.00,NNW,335,6.0,12.0,74,0.00,,,0.07,219.000000,,2013-05-01 20:32:00,
2013-05-01 16:01:00,42.0,35.0,-100.00,North,360,6.0,12.0,76,0.00,,,0.07,142.000000,,2013-05-01 21:01:00,
2013-05-01 16:11:00,42.0,35.0,-100.00,North,360,6.0,12.0,76,0.00,,,0.07,142.000000,,2013-05-01 21:11:00,
2013-05-01 16:22:00,42.0,35.0,-100.00,North,360,6.0,12.0,76,0.00,,,0.07,142.000000,,2013-05-01 21:22:00,
2013-05-01 16:32:00,42.0,35.0,-100.00,North,360,6.0,12.0,76,0.00,,,0.07,142.000000,,2013-05-01 21:32:00,
2013-05-01 17:03:00,39.0,33.0,-100.00,North,8,7.0,12.0,79,0.00,,,0.07,92.000000,,2013-05-01 22:03:00,
2013-05-01 17:12:00,39.0,33.0,-100.00,North,8,7.0,12.0,79,0.00,,,0.07,92.000000,,2013-05-01 22:12:00,
2013-05-01 17:23:00,39.0,33.0,-100.00,North,8,7.0,12.0,79,0.00,,,0.07,92.000000,,2013-05-01 22:23:00,
2013-05-01 17:33:00,39.0,33.0,-100.00,North,8,7.0,12.0,79,0.00,,,0.07,92.000000,,2013-05-01 22:33:00,
2013-05-01 18:02:00,38.0,31.0,-100.00,NNE,12,5.0,11.0,76,0.00,,,0.07,78.000000,,2013-05-01 23:02:00,
2013-05-01 18:12:00,38.0,31.0,-100.00,NNE,12,5.0,11.0,76,0.00,,,0.07,78.000000,,2013-05-01 23:12:00,
2013-05-01 18:21:00,38.0,31.0,-100.00,NNE,12,5.0,11.0,76,0.00,,,0.07,78.000000,,2013-05-01 23:21:00,
2013-05-01 18:32:00,38.0,31.0,-100.00,NNE,12,5.0,11.0,76,0.00,,,0.07,78.000000,,2013-05-01 23:32:00,
2013-05-01 19:01:00,36.0,29.0,-100.00,NNW,346,7.0,14.0,74,0.00,,,0.07,32.000000,,2013-05-02 00:01:00,
2013-05-01 19:11:00,36.0,29.0,-100.00,NNW,346,7.0,14.0,74,0.00,,,0.07,32.000000,,2013-05-02 00:11:00,
2013-05-01 19:21:00,36.0,29.0,-100.00,NNW,346,7.0,14.0,74,0.00,,,0.07,32.000000,,2013-05-02 00:21:00,
2013-05-01 19:32:00,36.0,29.0,-100.00,NNW,346,7.0,14.0,74,0.00,,,0.07,32.000000,,2013-05-02 00:32:00,
2013-05-01 20:01:00,34.0,29.0,-100.00,North,11,5.0,13.0,83,0.00,,,0.07,7.000000,,2013-05-02 01:01:00,
2013-05-01 20:11:00,34.0,29.0,-100.00,North,11,5.0,13.0,83,0.00,,,0.07,7.000000,,2013-05-02 01:11:00,
2013-05-01 20:21:00,34.0,29.0,-100.00,North,11,5.0,13.0,83,0.00,,,0.07,7.000000,,2013-05-02 01:21:00,
2013-05-01 20:32:00,34.0,29.0,-100.00,North,11,5.0,13.0,83,0.00,,,0.07,7.000000,,2013-05-02 01:32:00,
2013-05-01 21:02:00,33.0,30.0,-100.00,NNE,15,6.0,12.0,89,0.00,,,0.07,1.000000,,2013-05-02 02:02:00,
2013-05-01 21:12:00,33.0,30.0,-100.00,NNE,15,6.0,12.0,89,0.00,,,0.07,1.000000,,2013-05-02 02:12:00,
2013-05-01 21:21:00,33.0,30.0,-100.00,NNE,15,6.0,12.0,89,0.00,,,0.07,1.000000,,2013-05-02 02:21:00,
2013-05-01 21:32:00,33.0,30.0,-100.00,NNE,15,6.0,12.0,89,0.00,,,0.07,1.000000,,2013-05-02 02:32:00,
2013-05-01 22:01:00,32.0,30.0,-100.00,NNE,12,6.0,11.0,93,0.00,,,0.07,1.000000,,2013-05-02 03:01:00,
2013-05-01 22:11:00,32.0,30.0,-100.00,NNE,12,6.0,11.0,93,0.00,,,0.07,1.000000,,2013-05-02 03:11:00,
2013-05-01 22:22:00,32.0,30.0,-100.00,NNE,12,6.0,11.0,93,0.00,,,0.07,1.000000,,2013-05-02 03:22:00,
2013-05-01 22:33:00,32.0,30.0,-100.00,NNE,12,6.0,11.0,93,0.00,,,0.07,1.000000,,2013-05-02 03:33:00,
2013-05-01 23:03:00,32.0,30.0,-100.00,NNE,14,5.0,9.0,94,0.00,,,0.07,1.000000,,2013-05-02 04:03:00,
2013-05-01 23:12:00,32.0,30.0,-100.00,NNE,14,5.0,9.0,94,0.00,,,0.07,1.000000,,2013-05-02 04:12:00,
2013-05-01 23:23:00,32.0,30.0,-100.00,NNE,14,5.0,9.0,94,0.00,,,0.07,1.000000,,2013-05-02 04:23:00,
2013-05-01 23:33:00,32.0,30.0,-100.00,NNE,14,5.0,9.0,94,0.00,,,0.07,1.000000,,2013-05-02 04:33:00,